Time;durP1;ratioP1;P1;durP2;ratioP2;P2;SDS_P1;SDS_P2;PMS_P1;PMS_P2;Temp;Humidity;BMP_temperature;BMP_pressure;BME280_temperature;BME280_humidity;BME280_pressure;Samples;Min_cycle;Max_cycle;Signal;HPM_P1;HPM_P2
2021/04/29 00:00:49;;;;;;;;;;;31.30;25.30;;;;;;5078908;28;19909;-77
2021/04/29 00:03:15;;;;;;;;;;;31.30;27.50;;;;;;5082919;28;19928;-77
2021/04/29 00:05:41;;;;;;;;;;;31.30;27.70;;;;;;5088067;28;19938;-77
2021/04/29 00:08:07;;;;;;;;;;;31.30;28.00;;;;;;5095872;28;19923;-78
2021/04/29 00:10:34;;;;;;;;;;;31.30;27.60;;;;;;5091775;28;19959;-78
2021/04/29 00:13:00;;;;;;;;;;;31.20;27.00;;;;;;5092332;28;19923;-78
2021/04/29 00:15:26;;;;;;;;;;;31.10;27.60;;;;;;5089927;28;19920;-78
2021/04/29 00:17:52;;;;;;;;;;;30.90;27.70;;;;;;5090564;28;19950;-77
2021/04/29 00:20:20;;;;;;;;;;;30.80;27.70;;;;;;5091967;28;19948;-78
2021/04/29 00:22:46;;;;;;;;;;;30.70;27.90;;;;;;5090198;28;20013;-77
2021/04/29 00:25:13;;;;;;;;;;;30.60;26.80;;;;;;5085652;28;19970;-78
2021/04/29 00:27:39;;;;;;;;;;;30.60;27.30;;;;;;5092949;28;19977;-77
2021/04/29 00:30:06;;;;;;;;;;;30.60;27.40;;;;;;5091750;28;20268;-79
2021/04/29 00:32:32;;;;;;;;;;;30.40;27.80;;;;;;5091596;28;20642;-77
2021/04/29 00:34:58;;;;;;;;;;;30.30;26.80;;;;;;5082794;28;20356;-78
2021/04/29 00:37:24;;;;;;;;;;;30.30;25.20;;;;;;5089217;28;19962;-78
2021/04/29 00:39:50;;;;;;;;;;;30.20;25.50;;;;;;5087991;28;19921;-78
2021/04/29 00:42:16;;;;;;;;;;;30.00;26.00;;;;;;5089588;28;19990;-78
2021/04/29 00:44:42;;;;;;;;;;;30.00;22.90;;;;;;5093683;28;19909;-79
2021/04/29 00:47:09;;;;;;;;;;;29.70;23.10;;;;;;5079864;28;19923;-78
2021/04/29 00:49:35;;;;;;;;;;;30.10;22.30;;;;;;5094938;28;19917;-77
2021/04/29 00:52:01;;;;;;;;;;;29.90;22.90;;;;;;5111187;28;20335;-80
2021/04/29 00:54:30;;;;;;;;;;;29.70;21.80;;;;;;5079281;28;19919;-77
2021/04/29 00:56:57;;;;;;;;;;;29.60;23.80;;;;;;5087315;28;19926;-78
2021/04/29 00:59:23;;;;;;;;;;;29.50;23.40;;;;;;5097726;28;19912;-77
2021/04/29 01:01:58;;;;;;;;;;;29.40;24.10;;;;;;5087185;28;19927;-77
2021/04/29 01:04:28;;;;;;;;;;;29.30;23.30;;;;;;5091217;28;19912;-78
2021/04/29 01:06:57;;;;;;;;;;;29.30;23.90;;;;;;5096822;28;19916;-78
2021/04/29 01:09:29;;;;;;;;;;;29.20;25.10;;;;;;5111322;28;19978;-78
2021/04/29 01:11:59;;;;;;;;;;;29.50;25.80;;;;;;5087049;28;19917;-78
2021/04/29 01:14:26;;;;;;;;;;;29.50;25.60;;;;;;5089230;28;19916;-79
2021/04/29 01:16:55;;;;;;;;;;;29.40;26.60;;;;;;5086008;28;19954;-78
2021/04/29 01:19:22;;;;;;;;;;;29.40;26.30;;;;;;5091327;28;19948;-78
2021/04/29 01:21:51;;;;;;;;;;;29.40;26.70;;;;;;5098077;28;19912;-78
2021/04/29 01:24:23;;;;;;;;;;;29.40;26.40;;;;;;5115473;28;19927;-78
2021/04/29 01:27:01;;;;;;;;;;;29.30;26.70;;;;;;5098411;28;20384;-77
2021/04/29 01:29:29;;;;;;;;;;;29.00;27.40;;;;;;5086392;28;19916;-78
2021/04/29 01:31:55;;;;;;;;;;;29.00;26.20;;;;;;5096743;28;20357;-78
2021/04/29 01:34:23;;;;;;;;;;;28.80;26.70;;;;;;5097973;28;20260;-77
2021/04/29 01:36:51;;;;;;;;;;;28.90;26.40;;;;;;5085337;28;19913;-77
2021/04/29 01:39:18;;;;;;;;;;;29.00;26.40;;;;;;5093511;28;19908;-77
2021/04/29 01:41:48;;;;;;;;;;;28.80;26.30;;;;;;5092488;28;19947;-77
2021/04/29 01:44:14;;;;;;;;;;;28.70;26.60;;;;;;5089389;28;19920;-77
2021/04/29 01:46:41;;;;;;;;;;;28.60;26.40;;;;;;5094528;28;19908;-77
2021/04/29 01:49:08;;;;;;;;;;;28.40;27.00;;;;;;5077766;28;19913;-78
2021/04/29 01:51:35;;;;;;;;;;;28.20;27.20;;;;;;5104017;28;20281;-77
2021/04/29 01:54:02;;;;;;;;;;;28.20;27.30;;;;;;5088848;28;19963;-77
2021/04/29 01:56:28;;;;;;;;;;;28.10;27.20;;;;;;5079030;28;19920;-78
2021/04/29 01:58:54;;;;;;;;;;;28.20;27.30;;;;;;5078224;28;19913;-79
2021/04/29 02:01:20;;;;;;;;;;;27.90;25.80;;;;;;5085167;28;19913;-77
2021/04/29 02:03:46;;;;;;;;;;;27.90;25.30;;;;;;5077802;28;20114;-76
2021/04/29 02:06:12;;;;;;;;;;;27.70;24.90;;;;;;5089285;28;19931;-77
2021/04/29 02:08:38;;;;;;;;;;;27.60;24.00;;;;;;5076246;28;19910;-77
2021/04/29 02:11:04;;;;;;;;;;;27.50;24.20;;;;;;5077020;28;20327;-77
2021/04/29 02:13:31;;;;;;;;;;;27.40;23.70;;;;;;5087315;28;19916;-77
2021/04/29 02:16:06;;;;;;;;;;;27.10;24.80;;;;;;5093855;28;20381;-78
2021/04/29 02:18:33;;;;;;;;;;;27.20;25.00;;;;;;5078100;28;20418;-77
2021/04/29 02:21:00;;;;;;;;;;;27.00;25.40;;;;;;5077623;28;19964;-77
2021/04/29 02:23:27;;;;;;;;;;;27.00;25.50;;;;;;5078052;28;19935;-77
2021/04/29 02:25:55;;;;;;;;;;;27.00;25.30;;;;;;5078633;28;19913;-77
2021/04/29 02:28:21;;;;;;;;;;;26.70;25.20;;;;;;5080782;28;20263;-77
2021/04/29 02:30:48;;;;;;;;;;;26.50;26.30;;;;;;5085299;28;19994;-77
2021/04/29 02:33:15;;;;;;;;;;;26.50;25.40;;;;;;5092683;28;19916;-77
2021/04/29 02:35:42;;;;;;;;;;;26.50;25.20;;;;;;5087259;28;20364;-77
2021/04/29 02:38:08;;;;;;;;;;;26.30;25.50;;;;;;5093606;28;19912;-78
2021/04/29 02:40:34;;;;;;;;;;;26.10;25.20;;;;;;5090860;28;19973;-78
2021/04/29 02:43:00;;;;;;;;;;;26.10;25.30;;;;;;5093263;28;20015;-77
2021/04/29 02:45:26;;;;;;;;;;;26.00;25.20;;;;;;5084028;28;19912;-78
2021/04/29 02:47:53;;;;;;;;;;;25.70;25.60;;;;;;5088805;28;20349;-77
2021/04/29 02:50:20;;;;;;;;;;;25.60;25.40;;;;;;5094401;28;19946;-79
2021/04/29 02:52:49;;;;;;;;;;;25.40;25.70;;;;;;5101204;28;19920;-77
2021/04/29 02:55:15;;;;;;;;;;;25.30;25.70;;;;;;5095522;28;20322;-77
2021/04/29 02:57:41;;;;;;;;;;;25.20;25.70;;;;;;5091784;28;20368;-77
2021/04/29 03:00:10;;;;;;;;;;;25.00;25.90;;;;;;5080793;28;20356;-77
2021/04/29 03:02:39;;;;;;;;;;;25.00;25.80;;;;;;5080889;28;19923;-77
2021/04/29 03:05:06;;;;;;;;;;;24.70;26.10;;;;;;5087631;28;19985;-76
2021/04/29 03:07:32;;;;;;;;;;;24.70;26.10;;;;;;5088172;28;19916;-76
2021/04/29 03:09:58;;;;;;;;;;;24.40;26.50;;;;;;5079802;28;20242;-75
2021/04/29 03:12:24;;;;;;;;;;;24.40;26.30;;;;;;5088892;28;20325;-77
2021/04/29 03:14:50;;;;;;;;;;;24.10;26.60;;;;;;5082346;28;19923;-77
2021/04/29 03:17:16;;;;;;;;;;;24.20;26.50;;;;;;5091246;28;19931;-77
2021/04/29 03:19:42;;;;;;;;;;;24.00;26.60;;;;;;5094259;28;20360;-77
2021/04/29 03:22:08;;;;;;;;;;;23.90;26.80;;;;;;5092880;28;19922;-77
2021/04/29 03:24:34;;;;;;;;;;;23.80;27.00;;;;;;5094128;28;19923;-76
2021/04/29 03:27:00;;;;;;;;;;;23.60;27.10;;;;;;5105917;28;19912;-76
2021/04/29 03:29:26;;;;;;;;;;;23.60;26.90;;;;;;5098972;28;20036;-77
2021/04/29 03:31:52;;;;;;;;;;;23.60;27.00;;;;;;5093442;28;19912;-77
2021/04/29 03:34:18;;;;;;;;;;;23.40;27.10;;;;;;5090342;28;19927;-77
2021/04/29 03:36:44;;;;;;;;;;;23.40;27.10;;;;;;5090036;28;19923;-77
2021/04/29 03:39:10;;;;;;;;;;;23.30;27.10;;;;;;5092244;28;20481;-77
2021/04/29 03:41:36;;;;;;;;;;;23.30;26.90;;;;;;5090238;28;20023;-77
2021/04/29 03:44:02;;;;;;;;;;;23.10;26.90;;;;;;5092505;28;20712;-77
2021/04/29 03:46:28;;;;;;;;;;;23.00;26.90;;;;;;5093225;28;19908;-77
2021/04/29 03:48:54;;;;;;;;;;;22.90;26.90;;;;;;5079227;28;19912;-77
2021/04/29 03:51:20;;;;;;;;;;;22.90;26.50;;;;;;5091480;28;19965;-77
2021/04/29 03:53:46;;;;;;;;;;;22.80;26.50;;;;;;5091168;28;19912;-77
2021/04/29 03:56:12;;;;;;;;;;;22.70;26.50;;;;;;5092638;28;19925;-77
2021/04/29 03:58:38;;;;;;;;;;;22.60;26.40;;;;;;5092089;28;20345;-76
2021/04/29 04:01:04;;;;;;;;;;;22.60;26.20;;;;;;5091469;28;19912;-76
2021/04/29 04:03:30;;;;;;;;;;;22.60;26.10;;;;;;5092466;28;19954;-77
2021/04/29 04:05:58;;;;;;;;;;;22.60;25.90;;;;;;5088970;28;19926;-76
2021/04/29 04:08:24;;;;;;;;;;;22.50;25.90;;;;;;5093217;28;19922;-76
2021/04/29 04:10:50;;;;;;;;;;;22.50;25.50;;;;;;5087130;28;19937;-76
2021/04/29 04:13:17;;;;;;;;;;;22.60;24.90;;;;;;5095410;28;20043;-75
2021/04/29 04:15:43;;;;;;;;;;;22.40;25.70;;;;;;5087571;28;19962;-76
2021/04/29 04:18:09;;;;;;;;;;;22.50;25.20;;;;;;5081642;28;19980;-76
2021/04/29 04:20:36;;;;;;;;;;;22.50;25.10;;;;;;5086022;28;19939;-77
2021/04/29 04:23:02;;;;;;;;;;;22.40;25.50;;;;;;5085953;28;20019;-76
2021/04/29 04:25:28;;;;;;;;;;;22.10;26.20;;;;;;5087891;28;20058;-78
2021/04/29 04:27:54;;;;;;;;;;;22.10;26.10;;;;;;5091630;28;19920;-76
2021/04/29 04:30:20;;;;;;;;;;;22.20;25.80;;;;;;5086008;28;19913;-78
2021/04/29 04:32:46;;;;;;;;;;;22.10;26.30;;;;;;5092750;28;19925;-77
2021/04/29 04:35:12;;;;;;;;;;;21.90;26.40;;;;;;5098463;28;19922;-78
2021/04/29 04:37:38;;;;;;;;;;;21.80;27.30;;;;;;5095413;28;19981;-78
2021/04/29 04:40:05;;;;;;;;;;;21.70;27.80;;;;;;5094645;28;19955;-76
2021/04/29 04:42:31;;;;;;;;;;;21.60;28.60;;;;;;5093568;28;19916;-77
2021/04/29 04:44:57;;;;;;;;;;;21.50;30.20;;;;;;5094393;28;19923;-77
2021/04/29 04:47:23;;;;;;;;;;;21.40;30.80;;;;;;5091031;28;19911;-77
2021/04/29 04:49:49;;;;;;;;;;;21.20;29.50;;;;;;5092166;28;19912;-77
2021/04/29 04:52:15;;;;;;;;;;;21.10;29.60;;;;;;5095173;28;19927;-77
2021/04/29 04:54:41;;;;;;;;;;;21.00;30.30;;;;;;5096410;28;20269;-77
2021/04/29 04:57:11;;;;;;;;;;;20.90;30.50;;;;;;5097441;28;19912;-77
2021/04/29 04:59:37;;;;;;;;;;;20.70;31.50;;;;;;5097256;28;20236;-77
2021/04/29 05:02:03;;;;;;;;;;;20.50;34.40;;;;;;5097103;28;19935;-76
2021/04/29 05:04:29;;;;;;;;;;;20.30;34.20;;;;;;5096985;28;19931;-77
2021/04/29 05:06:56;;;;;;;;;;;20.10;37.50;;;;;;5097042;28;19974;-77
2021/04/29 05:09:22;;;;;;;;;;;20.00;34.40;;;;;;5095048;28;19921;-77
2021/04/29 05:11:48;;;;;;;;;;;19.90;32.40;;;;;;5105038;28;19900;-76
2021/04/29 05:14:15;;;;;;;;;;;19.80;33.40;;;;;;5108385;28;19938;-77
2021/04/29 05:16:43;;;;;;;;;;;19.70;34.00;;;;;;5096866;28;21462;-76
2021/04/29 05:19:10;;;;;;;;;;;19.60;36.70;;;;;;5091982;28;19951;-76
2021/04/29 05:21:36;;;;;;;;;;;19.50;33.50;;;;;;5091423;28;19912;-77
2021/04/29 05:24:02;;;;;;;;;;;19.40;33.80;;;;;;5084107;28;19918;-76
2021/04/29 05:26:28;;;;;;;;;;;19.30;33.80;;;;;;5111622;27;19912;-77
2021/04/29 05:28:54;;;;;;;;;;;19.20;33.70;;;;;;5091956;28;20283;-76
2021/04/29 05:31:20;;;;;;;;;;;19.20;35.30;;;;;;5078132;28;20012;-77
2021/04/29 05:33:46;;;;;;;;;;;19.00;34.20;;;;;;5079625;28;19920;-76
2021/04/29 05:36:12;;;;;;;;;;;19.00;34.30;;;;;;5098762;28;20246;-75
2021/04/29 05:38:38;;;;;;;;;;;18.90;34.40;;;;;;5096808;28;19912;-76
2021/04/29 05:41:05;;;;;;;;;;;18.80;34.80;;;;;;5090703;28;19966;-76
2021/04/29 05:43:31;;;;;;;;;;;18.70;34.60;;;;;;5095008;28;20268;-77
2021/04/29 05:45:57;;;;;;;;;;;18.70;35.00;;;;;;5095874;28;19919;-76
2021/04/29 05:48:23;;;;;;;;;;;18.60;34.00;;;;;;5078254;28;20281;-76
2021/04/29 05:50:49;;;;;;;;;;;18.50;35.00;;;;;;5093309;28;19908;-76
2021/04/29 05:53:15;;;;;;;;;;;18.50;33.90;;;;;;5086021;28;19989;-76
2021/04/29 05:55:41;;;;;;;;;;;18.40;34.50;;;;;;5091761;28;19989;-76
2021/04/29 05:58:07;;;;;;;;;;;18.30;34.80;;;;;;5096474;28;19918;-76
2021/04/29 06:00:35;;;;;;;;;;;18.30;33.90;;;;;;5086057;28;20007;-77
2021/04/29 06:03:01;;;;;;;;;;;18.20;33.90;;;;;;5080104;28;20315;-75
2021/04/29 06:05:27;;;;;;;;;;;18.20;33.70;;;;;;5091394;28;20367;-76
2021/04/29 06:07:59;;;;;;;;;;;18.10;33.90;;;;;;5096190;28;19908;-76
2021/04/29 06:10:26;;;;;;;;;;;18.00;33.80;;;;;;5089316;28;19916;-76
2021/04/29 06:12:52;;;;;;;;;;;17.90;38.00;;;;;;5096090;28;19925;-76
2021/04/29 06:15:18;;;;;;;;;;;17.70;36.30;;;;;;5096225;28;20245;-76
2021/04/29 06:17:44;;;;;;;;;;;17.60;35.70;;;;;;5095897;28;19931;-77
2021/04/29 06:20:11;;;;;;;;;;;17.60;34.10;;;;;;5096373;28;20337;-76
2021/04/29 06:22:37;;;;;;;;;;;17.50;34.90;;;;;;5081608;28;19913;-76
2021/04/29 06:25:04;;;;;;;;;;;17.50;34.10;;;;;;5091417;28;19920;-76
2021/04/29 06:27:30;;;;;;;;;;;17.40;35.40;;;;;;5075417;28;19949;-76
2021/04/29 06:29:56;;;;;;;;;;;17.30;35.50;;;;;;5077954;28;20413;-75
2021/04/29 06:32:22;;;;;;;;;;;17.30;35.30;;;;;;5096840;27;19912;-76
2021/04/29 06:34:48;;;;;;;;;;;17.20;34.40;;;;;;5075667;28;19909;-76
2021/04/29 06:37:14;;;;;;;;;;;17.20;34.60;;;;;;5075575;28;19924;-76
2021/04/29 06:39:42;;;;;;;;;;;17.10;34.90;;;;;;5084373;28;19951;-75
2021/04/29 06:42:09;;;;;;;;;;;17.00;34.90;;;;;;5075778;28;20357;-76
2021/04/29 06:44:35;;;;;;;;;;;17.00;34.80;;;;;;5087449;28;19916;-76
2021/04/29 06:47:01;;;;;;;;;;;17.00;37.90;;;;;;5096100;28;19907;-75
2021/04/29 06:49:27;;;;;;;;;;;16.90;36.50;;;;;;5093869;28;19912;-76
2021/04/29 06:51:53;;;;;;;;;;;16.80;35.10;;;;;;5087705;28;20032;-75
2021/04/29 06:54:19;;;;;;;;;;;16.80;35.20;;;;;;5096005;28;20008;-76
2021/04/29 06:56:45;;;;;;;;;;;16.70;35.20;;;;;;5098960;28;19965;-75
2021/04/29 06:59:11;;;;;;;;;;;16.70;36.10;;;;;;5106859;28;19916;-75
2021/04/29 07:01:37;;;;;;;;;;;16.70;36.20;;;;;;5095652;28;19922;-76
2021/04/29 07:04:04;;;;;;;;;;;16.60;36.20;;;;;;5079611;28;20290;-76
2021/04/29 07:06:30;;;;;;;;;;;16.50;35.90;;;;;;5074772;28;20008;-75
2021/04/29 07:08:56;;;;;;;;;;;16.50;36.20;;;;;;5082143;28;19923;-75
2021/04/29 07:11:22;;;;;;;;;;;16.40;35.90;;;;;;5095133;28;20008;-76
2021/04/29 07:13:48;;;;;;;;;;;16.30;36.10;;;;;;5090547;28;20315;-76
2021/04/29 07:16:14;;;;;;;;;;;16.30;36.10;;;;;;5093979;28;20337;-75
2021/04/29 07:18:40;;;;;;;;;;;16.20;36.20;;;;;;5093824;28;19908;-75
2021/04/29 07:21:06;;;;;;;;;;;16.10;36.20;;;;;;5082616;28;19935;-75
2021/04/29 07:23:32;;;;;;;;;;;16.10;36.80;;;;;;5074618;28;20315;-75
2021/04/29 07:25:58;;;;;;;;;;;16.10;37.60;;;;;;5074382;28;19908;-75
2021/04/29 07:28:25;;;;;;;;;;;16.10;37.00;;;;;;5078351;28;19923;-75
2021/04/29 07:30:51;;;;;;;;;;;15.90;37.20;;;;;;5082576;28;20269;-75
2021/04/29 07:33:17;;;;;;;;;;;15.90;38.20;;;;;;5094765;28;19924;-76
2021/04/29 07:35:43;;;;;;;;;;;15.80;36.90;;;;;;5093960;28;20321;-75
2021/04/29 07:38:09;;;;;;;;;;;15.70;37.40;;;;;;5090915;28;19915;-77
2021/04/29 07:40:36;;;;;;;;;;;15.60;38.00;;;;;;5094743;28;19923;-77
2021/04/29 07:43:02;;;;;;;;;;;15.60;37.10;;;;;;5075654;28;20347;-77
2021/04/29 07:45:28;;;;;;;;;;;15.50;37.90;;;;;;5073495;28;19962;-77
2021/04/29 07:47:54;;;;;;;;;;;15.50;38.00;;;;;;5074531;28;19977;-77
2021/04/29 07:50:20;;;;;;;;;;;15.50;38.00;;;;;;5073928;28;19924;-77
2021/04/29 07:52:47;;;;;;;;;;;15.40;38.20;;;;;;5086903;28;19912;-77
2021/04/29 07:55:13;;;;;;;;;;;15.40;38.30;;;;;;5076922;28;19935;-77
2021/04/29 07:57:39;;;;;;;;;;;15.40;39.30;;;;;;5084100;28;19908;-77
2021/04/29 08:00:06;;;;;;;;;;;15.40;40.10;;;;;;5094445;28;20253;-77
2021/04/29 08:02:33;;;;;;;;;;;15.40;40.10;;;;;;5091735;28;19964;-77
2021/04/29 08:04:59;;;;;;;;;;;15.40;40.60;;;;;;5074336;28;19908;-77
2021/04/29 08:07:25;;;;;;;;;;;15.50;41.50;;;;;;5077298;28;19952;-77
2021/04/29 08:09:51;;;;;;;;;;;15.60;41.30;;;;;;5093769;28;19942;-77
2021/04/29 08:12:17;;;;;;;;;;;15.60;42.10;;;;;;5097518;28;20427;-77
2021/04/29 08:14:43;;;;;;;;;;;15.70;44.50;;;;;;5098097;28;19966;-78
2021/04/29 08:17:09;;;;;;;;;;;15.70;44.40;;;;;;5098567;28;19930;-77
2021/04/29 08:19:35;;;;;;;;;;;15.80;43.10;;;;;;5084259;28;19917;-76
2021/04/29 08:22:02;;;;;;;;;;;15.80;44.50;;;;;;5102600;28;20367;-77
2021/04/29 08:24:28;;;;;;;;;;;15.90;43.40;;;;;;5106018;28;19908;-74
2021/04/29 08:26:54;;;;;;;;;;;15.90;42.10;;;;;;5098358;28;19916;-77
2021/04/29 08:29:20;;;;;;;;;;;15.90;43.10;;;;;;5099017;28;20003;-77
2021/04/29 08:31:46;;;;;;;;;;;15.90;42.60;;;;;;5098241;28;19955;-77
2021/04/29 08:34:12;;;;;;;;;;;15.90;43.40;;;;;;5097845;28;19916;-77
2021/04/29 08:36:38;;;;;;;;;;;15.90;42.10;;;;;;5098410;28;19995;-77
2021/04/29 08:39:05;;;;;;;;;;;15.90;41.80;;;;;;5098522;28;20341;-78
2021/04/29 08:41:32;;;;;;;;;;;15.80;41.50;;;;;;5079626;28;19912;-77
2021/04/29 08:43:58;;;;;;;;;;;15.90;42.20;;;;;;5077405;28;19908;-77
2021/04/29 08:46:24;;;;;;;;;;;15.80;40.90;;;;;;5078039;28;19968;-78
2021/04/29 08:48:54;;;;;;;;;;;15.60;41.20;;;;;;5087047;28;19908;-75
2021/04/29 08:51:21;;;;;;;;;;;15.50;41.80;;;;;;5114098;28;19920;-78
2021/04/29 08:53:48;;;;;;;;;;;15.50;41.20;;;;;;5105813;28;19943;-77
2021/04/29 08:56:17;;;;;;;;;;;15.40;43.00;;;;;;5086653;28;19915;-77
2021/04/29 08:58:43;;;;;;;;;;;15.30;41.80;;;;;;5096204;28;20333;-77
2021/04/29 09:01:09;;;;;;;;;;;15.40;41.00;;;;;;5096391;28;19961;-77
2021/04/29 09:03:35;;;;;;;;;;;15.30;41.30;;;;;;5082565;28;19916;-78
2021/04/29 09:06:03;;;;;;;;;;;15.20;41.40;;;;;;5075957;28;20338;-77
2021/04/29 09:08:31;;;;;;;;;;;15.10;41.80;;;;;;5077422;28;20349;-78
2021/04/29 09:11:11;;;;;;;;;;;15.10;42.20;;;;;;5076357;28;19919;-77
2021/04/29 09:13:37;;;;;;;;;;;15.00;41.20;;;;;;5076248;28;20341;-78
2021/04/29 09:16:07;;;;;;;;;;;15.00;42.10;;;;;;5078184;28;19909;-77
2021/04/29 09:18:33;;;;;;;;;;;14.90;42.00;;;;;;5076664;28;20007;-78
2021/04/29 09:21:02;;;;;;;;;;;14.90;41.60;;;;;;5087447;28;19994;-77
2021/04/29 09:23:31;;;;;;;;;;;14.80;42.80;;;;;;5103283;28;19916;-78
2021/04/29 09:25:59;;;;;;;;;;;14.70;42.60;;;;;;5093835;28;19965;-77
2021/04/29 09:28:35;;;;;;;;;;;14.80;41.20;;;;;;5079156;28;19947;-77
2021/04/29 09:31:02;;;;;;;;;;;14.80;42.30;;;;;;5083990;28;19932;-77
2021/04/29 09:33:32;;;;;;;;;;;14.70;41.60;;;;;;5075845;28;19928;-77
2021/04/29 09:35:58;;;;;;;;;;;14.70;41.60;;;;;;5089555;28;19947;-77
2021/04/29 09:38:31;;;;;;;;;;;14.60;42.80;;;;;;5097056;28;19918;-77
2021/04/29 09:40:57;;;;;;;;;;;14.60;43.00;;;;;;5096614;28;19912;-77
2021/04/29 09:43:23;;;;;;;;;;;14.50;46.00;;;;;;5096931;28;19937;-77
2021/04/29 09:45:59;;;;;;;;;;;14.50;42.80;;;;;;5084329;28;20296;-77
2021/04/29 09:48:36;;;;;;;;;;;14.50;42.20;;;;;;5080898;28;19912;-77
2021/04/29 09:51:02;;;;;;;;;;;14.50;42.70;;;;;;5095624;28;19912;-76
2021/04/29 09:53:37;;;;;;;;;;;14.50;42.60;;;;;;5095929;28;19908;-77
2021/04/29 09:56:08;;;;;;;;;;;14.50;41.20;;;;;;5082293;28;19912;-74
2021/04/29 09:58:34;;;;;;;;;;;14.50;41.50;;;;;;5076477;28;19959;-77
2021/04/29 10:01:00;;;;;;;;;;;14.50;42.00;;;;;;5088487;28;19919;-77
2021/04/29 10:03:26;;;;;;;;;;;14.50;42.10;;;;;;5083755;28;20035;-77
2021/04/29 10:05:54;;;;;;;;;;;14.40;42.30;;;;;;5080430;28;20360;-78
2021/04/29 10:08:25;;;;;;;;;;;14.40;42.40;;;;;;5091645;28;19973;-78
2021/04/29 10:10:52;;;;;;;;;;;14.40;42.50;;;;;;5096648;28;19936;-78
2021/04/29 10:13:20;;;;;;;;;;;14.30;42.00;;;;;;5112650;28;19908;-77
2021/04/29 10:15:46;;;;;;;;;;;14.30;42.50;;;;;;5090465;28;19912;-77
2021/04/29 10:18:13;;;;;;;;;;;14.30;42.90;;;;;;5076108;28;19985;-77
2021/04/29 10:20:46;;;;;;;;;;;14.20;42.80;;;;;;5076691;28;20359;-75
2021/04/29 10:23:17;;;;;;;;;;;14.30;43.70;;;;;;5076079;28;19916;-76
2021/04/29 10:25:54;;;;;;;;;;;14.30;45.00;;;;;;5076378;28;19912;-77
2021/04/29 10:28:34;;;;;;;;;;;14.30;44.10;;;;;;5078238;28;19958;-76
2021/04/29 10:31:13;;;;;;;;;;;14.10;43.60;;;;;;5088978;28;19908;-77
2021/04/29 10:33:41;;;;;;;;;;;14.20;44.80;;;;;;5080724;28;20233;-78
2021/04/29 10:36:11;;;;;;;;;;;14.20;45.50;;;;;;5076217;28;20310;-77
2021/04/29 10:38:37;;;;;;;;;;;14.20;45.90;;;;;;5076922;28;19916;-76
2021/04/29 10:41:15;;;;;;;;;;;14.20;47.20;;;;;;5078588;28;19948;-77
2021/04/29 10:43:42;;;;;;;;;;;14.30;47.40;;;;;;5086530;28;19936;-76
2021/04/29 10:46:08;;;;;;;;;;;14.20;45.80;;;;;;5099820;28;19922;-77
2021/04/29 10:48:35;;;;;;;;;;;14.00;46.20;;;;;;5098613;28;20001;-76
2021/04/29 10:51:09;;;;;;;;;;;13.90;45.30;;;;;;5079388;28;19995;-77
2021/04/29 10:53:36;;;;;;;;;;;13.90;45.00;;;;;;5089133;28;19916;-76
2021/04/29 10:56:19;;;;;;;;;;;13.80;45.80;;;;;;5081252;28;19999;-77
2021/04/29 10:58:46;;;;;;;;;;;13.80;44.70;;;;;;5093360;28;19924;-77
2021/04/29 11:01:17;;;;;;;;;;;13.80;45.00;;;;;;5095188;28;19922;-77
2021/04/29 11:03:49;;;;;;;;;;;13.70;45.30;;;;;;5093254;28;19965;-76
2021/04/29 11:06:22;;;;;;;;;;;13.70;46.40;;;;;;5083862;28;19916;-76
2021/04/29 11:08:49;;;;;;;;;;;13.80;46.90;;;;;;5075161;28;19912;-77
2021/04/29 11:11:22;;;;;;;;;;;13.60;45.40;;;;;;5076234;28;19915;-77
2021/04/29 11:13:58;;;;;;;;;;;13.60;44.80;;;;;;5074799;28;19916;-76
2021/04/29 11:16:24;;;;;;;;;;;13.50;45.30;;;;;;5093632;28;19916;-76
2021/04/29 11:18:51;;;;;;;;;;;13.60;46.50;;;;;;5091603;28;20779;-76
2021/04/29 11:21:27;;;;;;;;;;;13.60;47.00;;;;;;5084380;28;20451;-77
2021/04/29 11:23:53;;;;;;;;;;;13.50;47.50;;;;;;5094829;28;19916;-77
2021/04/29 11:26:21;;;;;;;;;;;13.50;47.00;;;;;;5094602;28;19912;-77
2021/04/29 11:28:48;;;;;;;;;;;13.50;47.20;;;;;;5108967;28;19915;-77
2021/04/29 11:31:14;;;;;;;;;;;13.50;47.70;;;;;;5093208;28;20308;-77
2021/04/29 11:33:48;;;;;;;;;;;13.50;48.60;;;;;;5111021;28;19978;-77
2021/04/29 11:36:16;;;;;;;;;;;13.40;47.90;;;;;;5094953;28;19935;-76
2021/04/29 11:38:56;;;;;;;;;;;13.30;47.10;;;;;;5084262;28;19915;-77
2021/04/29 11:41:22;;;;;;;;;;;13.30;47.10;;;;;;5087852;28;19913;-76
2021/04/29 11:43:58;;;;;;;;;;;13.30;46.80;;;;;;5094898;28;20631;-76
2021/04/29 11:46:25;;;;;;;;;;;13.30;46.80;;;;;;5093711;28;19919;-77
2021/04/29 11:49:04;;;;;;;;;;;13.20;46.60;;;;;;5095196;28;19908;-77
2021/04/29 11:51:31;;;;;;;;;;;13.10;46.20;;;;;;5093630;28;20370;-77
2021/04/29 11:54:07;;;;;;;;;;;13.10;46.10;;;;;;5096619;28;19909;-76
2021/04/29 11:56:41;;;;;;;;;;;13.10;46.50;;;;;;5081838;28;20029;-77
2021/04/29 11:59:08;;;;;;;;;;;13.10;46.70;;;;;;5094059;28;20060;-77
2021/04/29 12:01:35;;;;;;;;;;;13.10;47.10;;;;;;5094660;28;19908;-77
2021/04/29 12:04:12;;;;;;;;;;;13.10;48.00;;;;;;5089701;28;19916;-77
2021/04/29 12:07:02;;;;;;;;;;;13.20;48.90;;;;;;5073401;28;19909;-77
2021/04/29 12:09:28;;;;;;;;;;;13.10;48.00;;;;;;5073683;28;19908;-77
2021/04/29 12:11:55;;;;;;;;;;;12.90;47.20;;;;;;5078622;28;19913;-76
2021/04/29 12:14:22;;;;;;;;;;;13.00;49.80;;;;;;5074561;28;20007;-77
2021/04/29 12:16:48;;;;;;;;;;;13.10;51.20;;;;;;5082108;28;19915;-76
2021/04/29 12:19:14;;;;;;;;;;;13.10;49.30;;;;;;5088257;28;19916;-76
2021/04/29 12:21:43;;;;;;;;;;;12.90;49.00;;;;;;5074365;28;20334;-77
2021/04/29 12:24:10;;;;;;;;;;;12.80;48.50;;;;;;5086950;28;19912;-77
2021/04/29 12:26:37;;;;;;;;;;;12.80;50.90;;;;;;5093532;28;19916;-76
2021/04/29 12:29:13;;;;;;;;;;;12.90;50.70;;;;;;5106462;28;19918;-77
2021/04/29 12:31:51;;;;;;;;;;;12.80;50.00;;;;;;5079645;28;20054;-76
2021/04/29 12:34:17;;;;;;;;;;;12.70;49.50;;;;;;5074812;28;19921;-77
2021/04/29 12:36:50;;;;;;;;;;;12.70;50.30;;;;;;5094001;28;21256;-77
2021/04/29 12:39:17;;;;;;;;;;;12.70;49.60;;;;;;5108863;28;19900;-77
2021/04/29 12:41:46;;;;;;;;;;;12.70;49.50;;;;;;5111944;28;19908;-77
2021/04/29 12:44:12;;;;;;;;;;;12.70;49.90;;;;;;5108955;28;19908;-77
2021/04/29 12:46:40;;;;;;;;;;;12.70;49.60;;;;;;5092950;28;19911;-77
2021/04/29 12:49:06;;;;;;;;;;;12.60;49.50;;;;;;5092739;28;20116;-77
2021/04/29 12:51:34;;;;;;;;;;;12.60;49.50;;;;;;5093725;28;19920;-77
2021/04/29 12:54:07;;;;;;;;;;;12.70;51.70;;;;;;5077588;28;20230;-77
2021/04/29 12:56:37;;;;;;;;;;;12.80;51.50;;;;;;5076576;28;20304;-76
2021/04/29 12:59:10;;;;;;;;;;;12.80;52.20;;;;;;5077444;28;19939;-77
2021/04/29 13:01:37;;;;;;;;;;;12.70;51.30;;;;;;5081567;28;20324;-76
2021/04/29 13:04:03;;;;;;;;;;;12.70;50.40;;;;;;5077762;28;20282;-77
2021/04/29 13:06:29;;;;;;;;;;;12.50;49.60;;;;;;5091653;28;19918;-76
2021/04/29 13:08:58;;;;;;;;;;;12.50;49.20;;;;;;5099434;28;19912;-76
2021/04/29 13:11:41;;;;;;;;;;;12.50;50.30;;;;;;5118913;28;19908;-77
2021/04/29 13:14:12;;;;;;;;;;;12.60;51.00;;;;;;5092925;28;19908;-77
2021/04/29 13:16:39;;;;;;;;;;;12.60;50.90;;;;;;5077161;28;19908;-77
2021/04/29 13:19:06;;;;;;;;;;;12.60;51.00;;;;;;5088081;28;19916;-77
2021/04/29 13:21:33;;;;;;;;;;;12.50;49.60;;;;;;5089783;28;19921;-77
2021/04/29 13:23:59;;;;;;;;;;;12.40;49.70;;;;;;5076654;28;20038;-77
2021/04/29 13:26:25;;;;;;;;;;;12.40;49.40;;;;;;5082425;28;19916;-77
2021/04/29 13:28:51;;;;;;;;;;;12.40;49.80;;;;;;5084996;28;20336;-77
2021/04/29 13:31:18;;;;;;;;;;;12.50;50.50;;;;;;5087351;28;20306;-77
2021/04/29 13:33:44;;;;;;;;;;;12.40;50.30;;;;;;5082373;28;20270;-77
2021/04/29 13:36:11;;;;;;;;;;;12.60;52.40;;;;;;5080176;28;19912;-77
2021/04/29 13:38:37;;;;;;;;;;;12.60;52.40;;;;;;5086088;28;19951;-77
2021/04/29 13:41:03;;;;;;;;;;;12.70;52.90;;;;;;5096691;28;19912;-77
2021/04/29 13:43:29;;;;;;;;;;;12.70;52.80;;;;;;5093201;28;19916;-76
2021/04/29 13:45:55;;;;;;;;;;;12.50;51.40;;;;;;5080559;28;20364;-77
2021/04/29 13:48:21;;;;;;;;;;;12.40;51.20;;;;;;5076068;28;20031;-77
2021/04/29 13:50:47;;;;;;;;;;;12.50;51.70;;;;;;5093457;28;19912;-77
2021/04/29 13:53:14;;;;;;;;;;;12.50;51.00;;;;;;5092512;28;19961;-76
2021/04/29 13:55:40;;;;;;;;;;;12.50;51.70;;;;;;5089083;28;20311;-77
2021/04/29 13:58:08;;;;;;;;;;;12.50;50.20;;;;;;5088556;28;20332;-77
2021/04/29 14:00:36;;;;;;;;;;;12.50;50.70;;;;;;5084891;28;19977;-77
2021/04/29 14:03:03;;;;;;;;;;;12.50;51.80;;;;;;5079106;28;19970;-78
2021/04/29 14:05:29;;;;;;;;;;;12.60;49.80;;;;;;5090456;28;19912;-77
2021/04/29 14:07:55;;;;;;;;;;;12.60;49.60;;;;;;5077881;28;19922;-77
2021/04/29 14:10:21;;;;;;;;;;;12.60;49.80;;;;;;5084440;28;20338;-78
2021/04/29 14:12:47;;;;;;;;;;;12.60;49.60;;;;;;5077594;28;19948;-78
2021/04/29 14:15:13;;;;;;;;;;;12.60;50.00;;;;;;5075246;28;20004;-77
2021/04/29 14:17:39;;;;;;;;;;;12.60;50.20;;;;;;5075663;28;19943;-77